Newton Falls, New York
Current Conditions -  °F | °C
As of 8:58 AM on Thursday 23 Oct 2014 (Local Time) from KGTB Reporting Station
Overcast Overcast  
Wind Chill: 37°   Ceiling: 2700
Heat Index: 45°   Visibility: 10mi
Dew Point: 34°   Wind: 16mph
Humidity: 66%   Direction: 30°NNE
Pressure: 30.03"   Gusts: 24mph
Location:  44.21°N, 74.99°W
Report Text: KGTB 231258Z 03014G21KT 10SM OVC027 07/01 A3003 RMK AO2A OVC V BKN SLPNO ALSTG ESTMD
Loading
Personal Weather Stations






























Interactive Weather Map
Tropical Storm Tracking
New forecast layout! Learn more

10-Day Weather Forecast

Advertisements
Track Severe Weather on mobile